Stolt Dipper — ZCMY3 — position and weather

sailwx.info

Track history (hours):
 
Tides and Currents Weather Stations Pressure Air Temp Water Temp Dewpoint Dewpoint Depression Visibility Wind Speed Wind Dir Waves Ship Positions

Stolt Dipper

Last reported at 2014-Oct-22 11:30 UTC. Time now 2014-Oct-22 12:24 UTC.
Position N 51°53' E 004°17'.

Length 96 m; draft 6.2 m.

Type: Tanker. MMSI: 319036000.

Date/timePositionNaut miles runAvg speedWind from/ knotsBaromVisibWave heightAir tempDewpointWater temp
2014-Oct-22 11:30N 51°53' E 004°17'0 0.0
2014-Oct-22 10:33N 51°53' E 004°17'0 0.0
2014-Oct-22 09:33N 51°53' E 004°17'0 0.0
2014-Oct-22 08:33N 51°53' E 004°17'0 0.0
2014-Oct-22 07:27N 51°53' E 004°17'1 0.6
2014-Oct-22 06:34N 51°53' E 004°17'2 2.1
2014-Oct-22 05:33N 51°54' E 004°20'0 0.0
2014-Oct-22 04:30N 51°54' E 004°20'0 0.0
2014-Oct-22 03:30N 51°54' E 004°20'0 0.0
2014-Oct-22 02:33N 51°54' E 004°20'0 0.0
2014-Oct-22 01:33N 51°54' E 004°20'0 0.0
2014-Oct-22 00:30N 51°54' E 004°20'0 0.0
2014-Oct-21 23:33N 51°54' E 004°20'0 0.0
2014-Oct-21 22:33N 51°54' E 004°20'0 0.0
2014-Oct-21 21:30N 51°54' E 004°20'0 0.0
2014-Oct-21 20:33N 51°54' E 004°20'0 0.0
2014-Oct-21 19:33N 51°54' E 004°20'0 0.0
2014-Oct-21 18:27N 51°54' E 004°20'0 0.0
2014-Oct-21 17:27N 51°54' E 004°20'0 0.0
2014-Oct-21 16:33N 51°54' E 004°20'0 0.0
2014-Oct-21 15:33N 51°54' E 004°20'0 0.0
2014-Oct-21 14:30N 51°54' E 004°20'0 0.0
2014-Oct-21 12:33N 51°54' E 004°20'0 0.0
2014-Oct-21 11:33N 51°54' E 004°20'0 0.0
2014-Oct-21 10:30N 51°54' E 004°20'0 0.0
2014-Oct-21 09:24N 51°54' E 004°20'0 0.0
2014-Oct-21 08:27N 51°54' E 004°20'5 5.3
2014-Oct-21 07:33N 51°56' E 004°13'1010.1
2014-Oct-21 06:33N 51°60' E 003°59'1110.7
2014-Oct-21 05:33N 51°59' E 003°41'1412.3
2014-Oct-21 04:27N 51°54' E 003°20'2513.0
2014-Oct-21 02:32N 51°47' E 002°42'38 5.4
2014-Oct-20 19:33N 52°03' E 003°37'1211.9
2014-Oct-20 18:33N 52°02' E 003°56'1313.5
2014-Oct-20 17:33N 51°55' E 004°15'2 2.1
2014-Oct-20 16:33N 51°53' E 004°17'0 0.0
2014-Oct-20 15:33N 51°53' E 004°17'0 0.0
2014-Oct-20 14:33N 51°53' E 004°17'0 0.0
2014-Oct-20 13:27N 51°53' E 004°17'0 0.0
2014-Oct-20 12:33N 51°53' E 004°17'0 0.0
2014-Oct-20 11:33N 51°53' E 004°17'0 0.0
2014-Oct-20 10:30N 51°53' E 004°17'0 0.0
2014-Oct-20 09:33N 51°53' E 004°17'0 0.0
2014-Oct-20 08:33N 51°53' E 004°17'0 0.0
2014-Oct-20 07:33N 51°53' E 004°17'0 0.0
2014-Oct-20 06:33N 51°53' E 004°17'0 0.0
2014-Oct-20 05:33N 51°53' E 004°17'0 0.0
2014-Oct-20 04:33N 51°53' E 004°17'0 0.0
2014-Oct-20 03:31N 51°53' E 004°17'1 1.0
2014-Oct-20 02:34N 51°53' E 004°19'0 0.0
2014-Oct-20 01:19N 51°53' E 004°19'0 0.0
2014-Oct-20 00:28N 51°53' E 004°19'0 0.0
2014-Oct-19 23:28N 51°53' E 004°19'0 0.0
2014-Oct-19 21:10N 51°53' E 004°19'0 0.0
2014-Oct-19 20:31N 51°53' E 004°19'0 0.0
2014-Oct-19 19:31N 51°53' E 004°19'0 0.0
2014-Oct-19 18:31N 51°53' E 004°19'0 0.0
2014-Oct-19 17:13N 51°53' E 004°19'0 0.0
2014-Oct-19 16:13N 51°53' E 004°19'0 0.0
2014-Oct-19 15:31N 51°53' E 004°19'0 0.0
2014-Oct-19 14:07N 51°53' E 004°19'0 0.0
2014-Oct-19 13:25N 51°53' E 004°19'0 0.0
2014-Oct-19 12:31N 51°53' E 004°19'0 0.0
2014-Oct-19 11:31N 51°53' E 004°19'0 0.0
2014-Oct-19 10:28N 51°53' E 004°19'0 0.0
2014-Oct-19 09:28N 51°53' E 004°19'0 0.0
2014-Oct-19 08:31N 51°53' E 004°19'0 0.0
2014-Oct-19 07:31N 51°53' E 004°19'0 0.0
2014-Oct-19 05:31N 51°53' E 004°19'0 0.0
2014-Oct-19 04:16N 51°53' E 004°19'0 0.0
2014-Oct-19 03:31N 51°53' E 004°19'0 0.0
2014-Oct-19 02:31N 51°53' E 004°19'0 0.0
2014-Oct-19 01:31N 51°53' E 004°19'6 6.0
2014-Oct-19 00:33N 51°57' E 004°11'1212.2
2014-Oct-18 23:33N 52°00' E 003°52'1513.3
2014-Oct-18 22:24N 51°56' E 003°28'4013.0
2014-Oct-18 19:18N 51°39' E 002°29'1012.8
2014-Oct-18 18:34N 51°32' E 002°19'1212.4
2014-Oct-18 17:34N 51°21' E 002°10'1212.2
2014-Oct-18 16:34N 51°11' E 001°57'1312.5
2014-Oct-18 15:33N 51°04' E 001°41'1312.6
2014-Oct-18 14:32N 50°54' E 001°28'1212.6
2014-Oct-18 13:33N 50°42' E 001°23'  
Track history (hours):
 
Tides and Currents Weather Stations Pressure Air Temp Water Temp Dewpoint Dewpoint Depression Visibility Wind Speed Wind Dir Waves Ship Positions

Stolt Dipper

Last reported at 2014-Oct-22 11:30 UTC. Time now 2014-Oct-22 12:24 UTC.
Position N 51°53' E 004°17'.

Length 96 m; draft 6.2 m.

Type: Tanker. MMSI: 319036000.

Date/timePositionNaut miles runAvg speedWind from/ knotsBaromVisibWave heightAir tempDewpointWater temp
2014-Oct-22 11:30N 51°53' E 004°17'0 0.0
2014-Oct-22 10:33N 51°53' E 004°17'0 0.0
2014-Oct-22 09:33N 51°53' E 004°17'0 0.0
2014-Oct-22 08:33N 51°53' E 004°17'0 0.0
2014-Oct-22 07:27N 51°53' E 004°17'1 0.6
2014-Oct-22 06:34N 51°53' E 004°17'2 2.1
2014-Oct-22 05:33N 51°54' E 004°20'0 0.0
2014-Oct-22 04:30N 51°54' E 004°20'0 0.0
2014-Oct-22 03:30N 51°54' E 004°20'0 0.0
2014-Oct-22 02:33N 51°54' E 004°20'0 0.0
2014-Oct-22 01:33N 51°54' E 004°20'0 0.0
2014-Oct-22 00:30N 51°54' E 004°20'0 0.0
2014-Oct-21 23:33N 51°54' E 004°20'0 0.0
2014-Oct-21 22:33N 51°54' E 004°20'0 0.0
2014-Oct-21 21:30N 51°54' E 004°20'0 0.0
2014-Oct-21 20:33N 51°54' E 004°20'0 0.0
2014-Oct-21 19:33N 51°54' E 004°20'0 0.0
2014-Oct-21 18:27N 51°54' E 004°20'0 0.0
2014-Oct-21 17:27N 51°54' E 004°20'0 0.0
2014-Oct-21 16:33N 51°54' E 004°20'0 0.0
2014-Oct-21 15:33N 51°54' E 004°20'0 0.0
2014-Oct-21 14:30N 51°54' E 004°20'0 0.0
2014-Oct-21 12:33N 51°54' E 004°20'0 0.0
2014-Oct-21 11:33N 51°54' E 004°20'0 0.0
2014-Oct-21 10:30N 51°54' E 004°20'0 0.0
2014-Oct-21 09:24N 51°54' E 004°20'0 0.0
2014-Oct-21 08:27N 51°54' E 004°20'5 5.3
2014-Oct-21 07:33N 51°56' E 004°13'1010.1
2014-Oct-21 06:33N 51°60' E 003°59'1110.7
2014-Oct-21 05:33N 51°59' E 003°41'1412.3
2014-Oct-21 04:27N 51°54' E 003°20'2513.0
2014-Oct-21 02:32N 51°47' E 002°42'38 5.4
2014-Oct-20 19:33N 52°03' E 003°37'1211.9
2014-Oct-20 18:33N 52°02' E 003°56'1313.5
2014-Oct-20 17:33N 51°55' E 004°15'2 2.1
2014-Oct-20 16:33N 51°53' E 004°17'0 0.0
2014-Oct-20 15:33N 51°53' E 004°17'0 0.0
2014-Oct-20 14:33N 51°53' E 004°17'0 0.0
2014-Oct-20 13:27N 51°53' E 004°17'0 0.0
2014-Oct-20 12:33N 51°53' E 004°17'0 0.0
2014-Oct-20 11:33N 51°53' E 004°17'0 0.0
2014-Oct-20 10:30N 51°53' E 004°17'0 0.0
2014-Oct-20 09:33N 51°53' E 004°17'0 0.0
2014-Oct-20 08:33N 51°53' E 004°17'0 0.0
2014-Oct-20 07:33N 51°53' E 004°17'0 0.0
2014-Oct-20 06:33N 51°53' E 004°17'0 0.0
2014-Oct-20 05:33N 51°53' E 004°17'0 0.0
2014-Oct-20 04:33N 51°53' E 004°17'0 0.0
2014-Oct-20 03:31N 51°53' E 004°17'1 1.0
2014-Oct-20 02:34N 51°53' E 004°19'0 0.0
2014-Oct-20 01:19N 51°53' E 004°19'0 0.0
2014-Oct-20 00:28N 51°53' E 004°19'0 0.0
2014-Oct-19 23:28N 51°53' E 004°19'0 0.0
2014-Oct-19 21:10N 51°53' E 004°19'0 0.0
2014-Oct-19 20:31N 51°53' E 004°19'0 0.0
2014-Oct-19 19:31N 51°53' E 004°19'0 0.0
2014-Oct-19 18:31N 51°53' E 004°19'0 0.0
2014-Oct-19 17:13N 51°53' E 004°19'0 0.0
2014-Oct-19 16:13N 51°53' E 004°19'0 0.0
2014-Oct-19 15:31N 51°53' E 004°19'0 0.0
2014-Oct-19 14:07N 51°53' E 004°19'0 0.0
2014-Oct-19 13:25N 51°53' E 004°19'0 0.0
2014-Oct-19 12:31N 51°53' E 004°19'0 0.0
2014-Oct-19 11:31N 51°53' E 004°19'0 0.0
2014-Oct-19 10:28N 51°53' E 004°19'0 0.0
2014-Oct-19 09:28N 51°53' E 004°19'0 0.0
2014-Oct-19 08:31N 51°53' E 004°19'0 0.0
2014-Oct-19 07:31N 51°53' E 004°19'0 0.0
2014-Oct-19 05:31N 51°53' E 004°19'0 0.0
2014-Oct-19 04:16N 51°53' E 004°19'0 0.0
2014-Oct-19 03:31N 51°53' E 004°19'0 0.0
2014-Oct-19 02:31N 51°53' E 004°19'0 0.0
2014-Oct-19 01:31N 51°53' E 004°19'6 6.0
2014-Oct-19 00:33N 51°57' E 004°11'1212.2
2014-Oct-18 23:33N 52°00' E 003°52'1513.3
2014-Oct-18 22:24N 51°56' E 003°28'4013.0
2014-Oct-18 19:18N 51°39' E 002°29'1012.8
2014-Oct-18 18:34N 51°32' E 002°19'1212.4
2014-Oct-18 17:34N 51°21' E 002°10'1212.2
2014-Oct-18 16:34N 51°11' E 001°57'1312.5
2014-Oct-18 15:33N 51°04' E 001°41'1312.6
2014-Oct-18 14:32N 50°54' E 001°28'1212.6
2014-Oct-18 13:33N 50°42' E 001°23'  

Dump ship's entire track history